Time;durP1;ratioP1;P1;durP2;ratioP2;P2;SDS_P1;SDS_P2;PMS_P1;PMS_P2;Temp;Humidity;BMP_temperature;BMP_pressure;BME280_temperature;BME280_humidity;BME280_pressure;Samples;Min_cycle;Max_cycle;Signal;HPM_P1;HPM_P2
2024/01/31 00:00:08;;;;;;;4.18;3.97;;;;;;;-0.64;100.00;102618.53;4863378;29;20061;-71
2024/01/31 00:02:35;;;;;;;5.25;5.03;;;;;;;-0.16;100.00;102722.97;4871943;29;20057;-71
2024/01/31 00:05:00;;;;;;;3.80;3.60;;;;;;;-0.09;100.00;102709.78;4868084;29;20056;-71
2024/01/31 00:07:26;;;;;;;0.40;0.40;;;;;;;-0.67;100.00;102618.31;4869288;29;20037;-71
2024/01/31 00:09:51;;;;;;;1.95;1.85;;;;;;;-0.67;100.00;102616.63;4870059;29;20373;-71
2024/01/31 00:12:17;;;;;;;3.08;2.95;;;;;;;-0.89;100.00;102603.69;4874172;29;20096;-70
2024/01/31 00:14:45;;;;;;;1.35;1.33;;;;;;;-0.06;100.00;102699.72;4872463;29;20056;-70
2024/01/31 00:17:11;;;;;;;0.40;0.40;;;;;;;-0.72;100.00;102605.03;4862285;29;20049;-71
2024/01/31 00:19:37;;;;;;;1.48;1.42;;;;;;;-0.63;100.00;102607.47;4869932;29;20097;-71
2024/01/31 00:22:02;;;;;;;0.43;0.43;;;;;;;-0.15;100.00;102704.13;4867049;29;20430;-71
2024/01/31 00:24:28;;;;;;;2.05;1.95;;;;;;;-0.28;100.00;102707.38;4876704;29;20139;-73
2024/01/31 00:26:53;;;;;;;7.97;5.93;;;;;;;-0.19;100.00;102699.50;4857353;29;20084;-71
2024/01/31 00:29:19;;;;;;;0.55;0.55;;;;;;;-0.35;100.00;102700.84;4861742;29;20127;-71
2024/01/31 00:31:45;;;;;;;1.48;1.42;;;;;;;-0.19;100.00;102695.22;4873399;29;20037;-71
2024/01/31 00:34:10;;;;;;;1.00;1.00;;;;;;;-0.60;100.00;102650.66;4872945;29;20053;-72
2024/01/31 00:36:36;;;;;;;0.30;0.30;;;;;;;-0.15;100.00;102704.13;4873476;29;20452;-70
2024/01/31 00:39:01;;;;;;;0.40;0.40;;;;;;;-0.64;100.00;102609.13;4873810;29;20482;-71
2024/01/31 00:41:27;;;;;;;0.30;0.30;;;;;;;-0.24;100.00;102705.19;4873588;29;20041;-72
2024/01/31 00:43:52;;;;;;;8.07;4.78;;;;;;;-0.19;100.00;102702.97;4869218;29;20052;-70
2024/01/31 00:46:18;;;;;;;1.15;1.05;;;;;;;-0.52;100.00;102663.34;4867543;29;20057;-69
2024/01/31 00:48:43;;;;;;;0.98;0.88;;;;;;;-0.74;100.00;102614.31;4874329;29;20044;-70
2024/01/31 00:51:13;;;;;;;0.50;0.50;;;;;;;-0.68;100.00;102631.94;4871390;29;20540;-69
2024/01/31 00:53:39;;;;;;;1.25;1.15;;;;;;;-0.91;100.00;102607.81;4873010;29;20045;-69
2024/01/31 00:56:05;;;;;;;1.65;1.55;;;;;;;-1.02;100.00;102607.69;4873611;29;20109;-71
2024/01/31 00:58:32;;;;;;;0.30;0.30;;;;;;;-0.53;100.00;102699.34;4872627;29;20464;-70
2024/01/31 01:00:59;;;;;;;0.73;0.73;;;;;;;-0.40;100.00;102702.13;4871015;29;20973;-71
2024/01/31 01:03:25;;;;;;;1.23;1.15;;;;;;;-0.93;100.00;102601.63;4874432;29;20521;-70
2024/01/31 01:05:50;;;;;;;0.40;0.40;;;;;;;-0.51;100.00;102698.69;4871883;29;20045;-69
2024/01/31 01:08:16;;;;;;;2.15;2.05;;;;;;;-0.33;100.00;102686.41;4871801;29;20094;-69
2024/01/31 01:10:41;;;;;;;3.10;2.90;;;;;;;-1.01;100.00;102594.91;4869755;29;20401;-70
2024/01/31 01:13:07;;;;;;;0.77;0.77;;;;;;;-0.67;100.00;102685.34;4878615;29;20350;-70
2024/01/31 01:15:33;;;;;;;0.40;0.40;;;;;;;-0.58;100.00;102685.19;4875219;29;20081;-70
2024/01/31 01:17:59;;;;;;;9.07;8.50;;;;;;;-0.75;100.00;102670.91;4863400;29;20068;-72
2024/01/31 01:20:24;;;;;;;3.83;3.50;;;;;;;-1.09;100.00;102588.25;4885222;29;20084;-70
2024/01/31 01:22:50;;;;;;;15.32;13.98;;;;;;;-0.45;100.00;102678.53;4864890;29;20503;-70
2024/01/31 01:25:16;;;;;;;1.33;1.23;;;;;;;-0.78;100.00;102608.78;4869415;29;20096;-70
2024/01/31 01:27:50;;;;;;;12.63;9.20;;;;;;;-0.70;100.00;102652.47;4868315;29;20029;-70
2024/01/31 01:30:19;;;;;;;0.52;0.52;;;;;;;-0.53;100.00;102671.88;4856497;29;20041;-70
2024/01/31 01:32:44;;;;;;;1.95;1.83;;;;;;;-0.64;100.00;102671.00;4869008;29;20102;-69
2024/01/31 01:35:10;;;;;;;0.80;0.80;;;;;;;-0.66;100.00;102661.34;4867055;29;20056;-72
2024/01/31 01:37:36;;;;;;;0.60;0.60;;;;;;;-0.62;100.00;102667.66;4865619;29;20520;-70
2024/01/31 01:40:01;;;;;;;3.03;2.92;;;;;;;-1.11;100.00;102564.03;4869014;29;20063;-71
2024/01/31 01:42:27;;;;;;;1.30;1.20;;;;;;;-0.53;100.00;102671.88;4869874;29;20025;-70
2024/01/31 01:44:52;;;;;;;1.02;1.02;;;;;;;-1.17;100.00;102572.19;4866342;29;20041;-70
2024/01/31 01:47:18;;;;;;;4.72;4.30;;;;;;;-0.93;100.00;102637.69;4874634;29;20537;-70
2024/01/31 01:49:45;;;;;;;1.00;1.00;;;;;;;-1.32;100.00;102558.03;4870514;29;20048;-70
2024/01/31 01:52:12;;;;;;;1.33;1.33;;;;;;;-0.58;100.00;102662.88;4853973;29;20053;-69
2024/01/31 01:54:37;;;;;;;0.73;0.73;;;;;;;-1.23;100.00;102553.63;4875273;29;20053;-69
2024/01/31 01:57:05;;;;;;;1.30;1.30;;;;;;;-1.17;100.00;102631.41;4872741;29;20536;-71
2024/01/31 01:59:31;;;;;;;1.05;1.05;;;;;;;-0.96;100.00;102647.75;4874899;29;20060;-70
2024/01/31 02:01:58;;;;;;;0.30;0.30;;;;;;;-0.89;100.00;102651.72;4870246;29;20048;-70
2024/01/31 02:04:24;;;;;;;1.67;1.58;;;;;;;-1.39;100.00;102602.06;4857360;29;20049;-71
2024/01/31 02:06:51;;;;;;;0.40;0.40;;;;;;;-1.02;100.00;102618.00;4871063;29;20426;-70
2024/01/31 02:09:17;;;;;;;0.40;0.40;;;;;;;-0.96;100.00;102641.69;4873265;29;20043;-69
2024/01/31 02:11:44;;;;;;;1.40;1.40;;;;;;;-1.46;100.00;102540.53;4872472;29;20065;-70
2024/01/31 02:14:09;;;;;;;0.40;0.40;;;;;;;-1.35;100.00;102542.34;4870123;29;20068;-70
2024/01/31 02:16:35;;;;;;;0.82;0.82;;;;;;;-1.37;100.00;102536.16;4868927;29;20234;-70
2024/01/31 02:19:00;;;;;;;3.28;3.05;;;;;;;-0.76;100.00;102636.50;4870408;29;20150;-71
2024/01/31 02:21:27;;;;;;;0.65;0.65;;;;;;;-1.32;100.00;102532.28;4859717;29;20037;-70
2024/01/31 02:23:53;;;;;;;1.30;1.30;;;;;;;-0.83;100.00;102620.41;4861757;29;20058;-69
2024/01/31 02:26:18;;;;;;;8.55;8.18;;;;;;;-1.01;100.00;102606.91;4868154;29;20260;-69
2024/01/31 02:28:44;;;;;;;0.55;0.55;;;;;;;-1.01;100.00;102588.88;4864526;29;20052;-71
2024/01/31 02:31:09;;;;;;;1.77;1.67;;;;;;;-1.07;100.00;102595.34;4869741;29;20048;-70
2024/01/31 02:33:35;;;;;;;0.30;0.30;;;;;;;-1.38;100.00;102544.63;4866268;29;20041;-71
2024/01/31 02:36:00;;;;;;;10.80;6.93;;;;;;;-1.35;100.00;102522.63;4868794;29;20446;-70
2024/01/31 02:38:26;;;;;;;1.17;1.17;;;;;;;-0.97;100.00;102602.13;4854085;29;20080;-70
2024/01/31 02:40:51;;;;;;;9.88;9.27;;;;;;;-1.00;100.00;102607.06;4884425;29;20146;-70
2024/01/31 02:43:17;;;;;;;4.97;3.80;;;;;;;-1.28;100.00;102542.06;4852323;29;20127;-70
2024/01/31 02:45:42;;;;;;;0.60;0.60;;;;;;;-0.72;100.00;102606.72;4870571;29;20116;-70
2024/01/31 02:48:08;;;;;;;1.30;1.20;;;;;;;-1.22;100.00;102518.47;4872129;29;20033;-70
2024/01/31 02:50:34;;;;;;;0.63;0.63;;;;;;;-1.22;100.00;102531.34;4868480;29;20049;-70
2024/01/31 02:53:00;;;;;;;0.35;0.35;;;;;;;-0.87;100.00;102599.56;4866611;29;20055;-71
2024/01/31 02:55:26;;;;;;;3.20;3.00;;;;;;;-0.79;100.00;102597.59;4868500;29;20061;-70
2024/01/31 02:57:51;;;;;;;2.03;1.92;;;;;;;-1.14;100.00;102523.47;4870165;29;20033;-70
2024/01/31 03:00:17;;;;;;;6.10;5.70;;;;;;;-0.86;100.00;102597.88;4867615;29;20537;-70
2024/01/31 03:02:43;;;;;;;0.30;0.30;;;;;;;-0.83;100.00;102581.75;4866881;29;20674;-70
2024/01/31 03:05:09;;;;;;;2.70;2.58;;;;;;;-0.91;100.00;102576.00;4862357;29;20057;-71
2024/01/31 03:07:35;;;;;;;4.07;3.78;;;;;;;-0.81;100.00;102599.13;4854201;29;20045;-71
2024/01/31 03:10:00;;;;;;;13.30;12.32;;;;;;;-0.99;100.00;102585.66;4869896;29;20852;-70
2024/01/31 03:12:26;;;;;;;0.50;0.40;;;;;;;-1.08;100.00;102582.31;4872566;29;20148;-70
2024/01/31 03:14:52;;;;;;;4.20;3.92;;;;;;;-1.08;100.00;102549.75;4866820;29;20084;-70
2024/01/31 03:17:17;;;;;;;1.17;1.10;;;;;;;-0.97;100.00;102584.09;4866646;29;20558;-71
2024/01/31 03:19:43;;;;;;;0.77;0.77;;;;;;;-1.51;100.00;102479.28;4870051;29;20055;-70
2024/01/31 03:22:09;;;;;;;1.42;1.42;;;;;;;-1.28;100.00;102516.31;4870518;29;20136;-71
2024/01/31 03:24:35;;;;;;;1.17;1.17;;;;;;;-1.12;100.00;102557.09;4854727;29;20037;-69
2024/01/31 03:27:00;;;;;;;0.93;0.93;;;;;;;-1.39;100.00;102505.13;4870438;29;20069;-70
2024/01/31 03:29:26;;;;;;;8.27;7.60;;;;;;;-1.41;100.00;102511.81;4871120;29;20053;-70
2024/01/31 03:31:52;;;;;;;4.57;4.25;;;;;;;-1.58;100.00;102478.66;4868414;29;20644;-70
2024/01/31 03:34:17;;;;;;;0.30;0.30;;;;;;;-1.41;100.00;102523.78;4865304;29;20124;-69
2024/01/31 03:36:43;;;;;;;1.52;1.48;;;;;;;-1.11;100.00;102557.22;4866412;29;20125;-69
2024/01/31 03:39:09;;;;;;;3.28;3.13;;;;;;;-0.95;100.00;102577.41;4866302;29;20064;-71
2024/01/31 03:41:35;;;;;;;2.38;2.17;;;;;;;-0.94;100.00;102576.59;4884457;29;20113;-70
2024/01/31 03:44:00;;;;;;;2.85;0.82;;;;;;;-0.99;100.00;102577.03;4868729;29;20057;-70
2024/01/31 03:46:26;;;;;;;9.23;3.95;;;;;;;-1.53;100.00;102477.34;4865325;29;20513;-71
2024/01/31 03:48:52;;;;;;;0.40;0.40;;;;;;;-0.83;100.00;102584.34;4850649;29;20056;-71
2024/01/31 03:51:22;;;;;;;7.90;7.32;;;;;;;-1.60;100.00;102475.03;4851774;29;20490;-72
2024/01/31 03:53:48;;;;;;;1.48;1.38;;;;;;;-1.53;100.00;102470.50;4867421;29;20085;-72
2024/01/31 03:56:15;;;;;;;0.75;0.75;;;;;;;-1.02;100.00;102577.69;4867280;29;20065;-71
2024/01/31 03:58:41;;;;;;;0.95;0.95;;;;;;;-1.28;100.00;102567.81;4869831;29;20041;-70
2024/01/31 04:01:07;;;;;;;0.43;0.43;;;;;;;-1.29;100.00;102524.78;4879826;29;20041;-69
2024/01/31 04:03:34;;;;;;;1.55;1.45;;;;;;;-1.30;100.00;102548.75;4863922;29;20040;-70
2024/01/31 04:05:59;;;;;;;0.30;0.30;;;;;;;-1.11;100.00;102577.81;4867421;29;20072;-70
2024/01/31 04:08:25;;;;;;;7.97;7.30;;;;;;;-1.03;100.00;102564.66;4875143;29;20486;-71
2024/01/31 04:10:52;;;;;;;9.73;9.07;;;;;;;-1.12;100.00;102577.72;4869622;29;20053;-70
2024/01/31 04:13:20;;;;;;;0.32;0.32;;;;;;;-1.11;100.00;102570.09;4875333;29;20041;-71
2024/01/31 04:15:46;;;;;;;0.40;0.40;;;;;;;-1.24;100.00;102577.59;4869024;29;20033;-71
2024/01/31 04:18:11;;;;;;;0.65;0.65;;;;;;;-1.24;100.00;102572.44;4870902;29;20037;-69
2024/01/31 04:20:38;;;;;;;0.85;0.85;;;;;;;-1.28;100.00;102562.66;4868835;29;20052;-71
2024/01/31 04:23:03;;;;;;;2.10;2.00;;;;;;;-1.28;100.00;102560.97;4869507;29;20056;-70
2024/01/31 04:25:29;;;;;;;1.95;1.85;;;;;;;-1.15;100.00;102573.22;4869365;29;20141;-71
2024/01/31 04:27:54;;;;;;;1.38;1.27;;;;;;;-1.66;100.00;102479.69;4849440;29;20046;-70
2024/01/31 04:30:20;;;;;;;1.95;1.85;;;;;;;-1.61;100.00;102499.00;4872196;29;20607;-72
2024/01/31 04:32:46;;;;;;;3.90;3.70;;;;;;;-1.45;100.00;102502.06;4865229;29;20525;-70
2024/01/31 04:35:12;;;;;;;1.00;1.00;;;;;;;-1.21;100.00;102575.28;4866261;29;20046;-70
2024/01/31 04:37:38;;;;;;;0.80;0.80;;;;;;;-1.78;100.00;102501.06;4866939;29;20101;-71
2024/01/31 04:40:04;;;;;;;1.25;1.20;;;;;;;-1.57;100.00;102488.16;4868158;29;20069;-70
2024/01/31 04:42:30;;;;;;;0.98;0.98;;;;;;;-1.12;100.00;102578.59;4865261;29;20033;-70
2024/01/31 04:44:56;;;;;;;0.30;0.30;;;;;;;-1.66;100.00;102489.97;4865462;29;20084;-70
2024/01/31 04:47:25;;;;;;;4.15;3.95;;;;;;;-1.35;100.00;102571.56;4865055;29;20144;-70
2024/01/31 04:49:58;;;;;;;0.40;0.40;;;;;;;-1.49;100.00;102574.66;4868414;29;20041;-72
2024/01/31 04:52:24;;;;;;;;;;;;;;;-1.16;100.00;102594.56;4870442;29;20057;-71
2024/01/31 04:54:53;;;;;;;0.38;0.38;;;;;;;-1.60;100.00;102591.75;4867811;29;19974;-70
2024/01/31 04:57:19;;;;;;;0.30;0.30;;;;;;;-1.26;100.00;102586.88;4865241;29;20143;-70
2024/01/31 04:59:44;;;;;;;11.02;10.38;;;;;;;-1.89;100.00;102501.84;4868980;29;20091;-71
2024/01/31 05:02:10;;;;;;;0.60;0.60;;;;;;;-1.56;100.00;102591.25;4865021;29;22734;-71
2024/01/31 05:04:36;;;;;;;0.63;0.63;;;;;;;-1.94;100.00;102493.72;4884045;29;20124;-70
2024/01/31 05:07:03;;;;;;;0.32;0.32;;;;;;;-1.46;100.00;102566.28;4873617;29;20063;-70
2024/01/31 05:09:28;;;;;;;0.30;0.30;;;;;;;-1.86;100.00;102532.97;4874521;29;20509;-70
2024/01/31 05:11:54;;;;;;;0.85;0.85;;;;;;;-1.37;100.00;102588.53;4871107;29;20060;-70
2024/01/31 05:14:20;;;;;;;0.60;0.60;;;;;;;-1.51;100.00;102527.28;4873578;29;20065;-69
2024/01/31 05:16:45;;;;;;;1.10;0.95;;;;;;;-1.95;100.00;102489.34;4866871;29;20049;-70
2024/01/31 05:19:14;;;;;;;0.50;0.50;;;;;;;-1.36;100.00;102571.41;4872091;29;20053;-70
2024/01/31 05:21:48;;;;;;;3.22;2.55;;;;;;;-1.35;100.00;102571.56;4872820;29;20056;-70
2024/01/31 05:24:14;;;;;;;4.88;4.47;;;;;;;-1.41;100.00;102563.31;4875488;29;20069;-71
2024/01/31 05:26:42;;;;;;;2.45;2.35;;;;;;;-1.40;100.00;102572.84;4872718;29;20053;-69
2024/01/31 05:29:07;;;;;;;1.60;1.58;;;;;;;-1.96;100.00;102490.13;4871783;29;20057;-72
2024/01/31 05:31:33;;;;;;;0.75;0.75;;;;;;;-1.80;100.00;102510.31;4868409;29;20053;-70
2024/01/31 05:33:58;;;;;;;0.50;0.50;;;;;;;-1.81;100.00;102494.75;4868855;29;20152;-71
2024/01/31 05:36:24;;;;;;;1.48;0.93;;;;;;;-2.15;100.00;102481.66;4874240;29;20041;-70
2024/01/31 05:38:50;;;;;;;3.33;2.97;;;;;;;-1.30;100.00;102587.38;4869639;29;20049;-72
2024/01/31 05:41:15;;;;;;;5.07;4.78;;;;;;;-1.98;100.00;102483.06;4867429;29;20061;-70
2024/01/31 05:43:41;;;;;;;0.35;0.35;;;;;;;-1.45;100.00;102592.16;4871080;29;20078;-73
2024/01/31 05:46:07;;;;;;;9.75;9.18;;;;;;;-1.46;100.00;102545.69;4865258;29;20055;-70
2024/01/31 05:48:34;;;;;;;0.40;0.40;;;;;;;-1.89;100.00;102506.09;4871143;29;20128;-71
2024/01/31 05:50:59;;;;;;;3.20;3.00;;;;;;;-1.60;100.00;102523.94;4869656;29;20057;-70
2024/01/31 05:53:25;;;;;;;0.77;0.75;;;;;;;-1.59;100.00;102559.19;4871901;29;20406;-71
2024/01/31 05:55:50;;;;;;;0.30;0.30;;;;;;;-1.29;100.00;102592.69;4867546;29;20084;-72
2024/01/31 05:58:17;;;;;;;3.00;2.90;;;;;;;-1.17;100.00;102591.88;4851671;29;20102;-71
2024/01/31 06:00:44;;;;;;;0.30;0.30;;;;;;;-1.81;100.00;102476.75;4867152;29;20466;-70
2024/01/31 06:03:10;;;;;;;0.45;0.45;;;;;;;-1.22;100.00;102590.59;4868479;29;20049;-72
2024/01/31 06:05:36;;;;;;;1.98;1.88;;;;;;;-1.58;100.00;102514.69;4875656;29;20148;-70
2024/01/31 06:08:03;;;;;;;0.57;0.57;;;;;;;-1.07;100.00;102590.19;4868729;29;20937;-71
2024/01/31 06:10:29;;;;;;;3.13;1.75;;;;;;;-1.16;100.00;102571.38;4867419;29;20117;-71
2024/01/31 06:12:54;;;;;;;0.80;0.80;;;;;;;-1.05;100.00;102595.47;4875797;29;20033;-70
2024/01/31 06:15:20;;;;;;;0.82;0.82;;;;;;;-1.44;100.00;102509.00;4874729;29;20119;-71
2024/01/31 06:17:46;;;;;;;7.68;2.75;;;;;;;-1.67;100.00;102489.06;4865291;29;20040;-72
2024/01/31 06:20:12;;;;;;;1.95;1.85;;;;;;;-0.99;100.00;102587.34;4868621;29;20052;-71
2024/01/31 06:22:37;;;;;;;0.70;0.70;;;;;;;-0.96;100.00;102578.19;4863901;29;20160;-71
2024/01/31 06:25:04;;;;;;;8.15;7.47;;;;;;;-1.40;100.00;102513.63;4865460;29;20103;-70
2024/01/31 06:27:29;;;;;;;0.65;0.65;;;;;;;-1.06;100.00;102570.47;4867470;29;20036;-70
2024/01/31 06:29:55;;;;;;;3.45;3.25;;;;;;;-1.52;100.00;102479.16;4877006;29;20055;-69
2024/01/31 06:32:29;;;;;;;1.42;1.33;;;;;;;-1.51;100.00;102504.13;4867287;29;20053;-72
2024/01/31 06:34:55;;;;;;;1.75;1.48;;;;;;;-0.99;100.00;102574.44;4871109;29;20053;-71
2024/01/31 06:37:20;;;;;;;1.70;1.60;;;;;;;-0.91;100.00;102582.03;4871476;29;20096;-71
2024/01/31 06:39:47;;;;;;;1.13;1.13;;;;;;;-0.94;100.00;102568.88;4869735;29;20777;-70
2024/01/31 06:42:12;;;;;;;0.50;0.50;;;;;;;-1.23;100.00;102574.25;4867903;29;20037;-70
2024/01/31 06:44:38;;;;;;;0.70;0.70;;;;;;;-1.72;100.00;102504.13;4871213;29;20617;-70
2024/01/31 06:47:05;;;;;;;0.30;0.30;;;;;;;-1.08;100.00;102587.47;4866560;29;20065;-70
2024/01/31 06:49:31;;;;;;;2.67;2.50;;;;;;;-1.02;100.00;102585.41;4868436;29;20049;-70
2024/01/31 06:51:56;;;;;;;2.05;1.95;;;;;;;-1.03;100.00;102583.63;4856450;29;20049;-70
2024/01/31 06:54:22;;;;;;;3.80;3.60;;;;;;;-1.19;100.00;102542.81;4868460;29;20048;-70
2024/01/31 06:56:47;;;;;;;0.95;0.95;;;;;;;-1.12;100.00;102591.47;4872423;29;20570;-72
2024/01/31 06:59:13;;;;;;;7.50;1.98;;;;;;;-1.16;100.00;102567.91;4872889;29;20049;-72
2024/01/31 07:01:38;;;;;;;6.10;5.68;;;;;;;-1.39;100.00;102520.56;4873146;29;20083;-71
2024/01/31 07:04:04;;;;;;;0.80;0.80;;;;;;;-1.15;100.00;102603.19;4869957;29;20048;-70
2024/01/31 07:06:29;;;;;;;3.15;2.90;;;;;;;-1.42;100.00;102517.75;4865796;29;20166;-71
2024/01/31 07:08:55;;;;;;;1.80;1.50;;;;;;;-0.79;100.00;102595.00;4868249;29;20438;-72
2024/01/31 07:11:21;;;;;;;0.68;0.57;;;;;;;-0.82;100.00;102591.28;4870579;29;20584;-70
2024/01/31 07:13:46;;;;;;;1.17;1.17;;;;;;;-0.71;100.00;102587.88;4871382;29;20079;-70
2024/01/31 07:16:12;;;;;;;0.50;0.50;;;;;;;-0.83;100.00;102564.59;4869820;29;20053;-72
2024/01/31 07:18:41;;;;;;;0.55;0.55;;;;;;;-0.66;100.00;102568.53;4869891;29;20068;-71
2024/01/31 07:21:08;;;;;;;1.00;1.00;;;;;;;-0.94;100.00;102501.00;4871163;29;20068;-70
2024/01/31 07:23:35;;;;;;;0.35;0.35;;;;;;;-0.46;100.00;102575.28;4868074;29;20052;-69
2024/01/31 07:26:00;;;;;;;2.20;2.08;;;;;;;-0.67;100.00;102559.91;4870701;29;20147;-72
2024/01/31 07:28:26;;;;;;;0.77;0.77;;;;;;;-1.07;100.00;102471.69;4869557;29;20049;-69
2024/01/31 07:30:52;;;;;;;3.42;3.28;;;;;;;-0.47;100.00;102556.34;4867841;29;20033;-71
2024/01/31 07:33:19;;;;;;;3.25;3.05;;;;;;;-1.10;100.00;102471.44;4871152;29;20033;-71
2024/01/31 07:35:45;;;;;;;0.30;0.30;;;;;;;-0.92;100.00;102496.88;4869705;29;20106;-71
2024/01/31 07:38:11;;;;;;;2.65;2.55;;;;;;;-0.32;100.00;102572.13;4868146;29;20053;-71
2024/01/31 07:40:37;;;;;;;0.40;0.40;;;;;;;-0.67;100.00;102499.72;4872779;29;20520;-71
2024/01/31 07:43:03;;;;;;;2.25;0.77;;;;;;;-0.56;100.00;102524.69;4858491;29;20140;-71
2024/01/31 07:45:29;;;;;;;0.95;0.95;;;;;;;-0.60;100.00;102472.75;4872888;29;20155;-72
2024/01/31 07:47:56;;;;;;;1.00;1.00;;;;;;;-1.42;100.00;102298.91;4872172;29;20121;-70
2024/01/31 07:50:22;;;;;;;4.68;2.08;;;;;;;0.00;100.00;102555.69;4871339;29;20102;-70
2024/01/31 07:52:47;;;;;;;0.38;0.38;;;;;;;-0.05;100.00;102565.66;4872301;29;20063;-71
2024/01/31 07:55:13;;;;;;;1.70;1.63;;;;;;;0.11;100.00;102554.81;4871574;29;20100;-71
2024/01/31 07:57:39;;;;;;;4.03;3.83;;;;;;;-0.39;100.00;102455.47;4870808;29;20045;-70
2024/01/31 08:00:06;;;;;;;0.40;0.40;;;;;;;0.24;100.00;102541.19;4872044;29;20439;-73
2024/01/31 08:02:32;;;;;;;0.50;0.50;;;;;;;-0.30;100.00;102461.34;4871006;29;20159;-69
2024/01/31 08:04:58;;;;;;;0.95;0.95;;;;;;;-0.06;100.00;102446.84;4864795;29;20069;-70
2024/01/31 08:07:24;;;;;;;3.25;3.15;;;;;;;-0.09;100.00;102478.47;4866530;29;20037;-69
2024/01/31 08:09:51;;;;;;;0.85;0.85;;;;;;;-0.12;100.00;102460.16;4868301;29;20515;-71
2024/01/31 08:12:17;;;;;;;2.67;2.45;;;;;;;0.06;100.00;102468.41;4869798;29;20032;-69
2024/01/31 08:14:43;;;;;;;0.45;0.45;;;;;;;0.50;100.00;102544.84;4887238;29;20068;-70
2024/01/31 08:17:08;;;;;;;0.77;0.77;;;;;;;0.50;100.00;102522.47;4869388;29;20049;-70
2024/01/31 08:19:34;;;;;;;4.72;4.50;;;;;;;0.11;100.00;102445.50;4870302;29;20045;-70
2024/01/31 08:22:01;;;;;;;0.45;0.45;;;;;;;0.38;100.00;102465.66;4868102;29;20081;-72
2024/01/31 08:24:26;;;;;;;1.40;1.33;;;;;;;0.23;100.00;102445.53;4868721;29;20046;-71
2024/01/31 08:26:52;;;;;;;0.60;0.60;;;;;;;0.45;100.00;102448.03;4871752;29;20051;-70
2024/01/31 08:29:17;;;;;;;0.43;0.43;;;;;;;1.02;100.00;102522.84;4871716;29;20044;-70
2024/01/31 08:31:43;;;;;;;15.13;13.35;;;;;;;0.93;100.00;102541.16;4869817;29;20052;-70
2024/01/31 08:34:10;;;;;;;1.35;1.33;;;;;;;0.75;100.00;102532.03;4872243;29;20466;-71
2024/01/31 08:36:36;;;;;;;5.07;4.65;;;;;;;0.93;100.00;102499.78;4874195;29;20493;-70
2024/01/31 08:39:02;;;;;;;11.27;10.73;;;;;;;1.09;100.00;102488.00;4871991;29;20087;-71
2024/01/31 08:41:28;;;;;;;4.78;4.35;;;;;;;1.10;100.00;102521.72;4876111;29;20571;-70
2024/01/31 08:43:53;;;;;;;0.60;0.60;;;;;;;0.72;100.00;102421.63;4875786;29;20044;-71
2024/01/31 08:46:19;;;;;;;1.63;1.52;;;;;;;0.68;100.00;102426.44;4875799;29;20049;-71
2024/01/31 08:48:44;;;;;;;8.65;8.18;;;;;;;0.90;100.00;102429.81;4874293;29;20549;-69
2024/01/31 08:51:10;;;;;;;0.43;0.43;;;;;;;1.18;100.00;102458.53;4874218;29;20033;-72
2024/01/31 08:53:35;;;;;;;6.05;5.78;;;;;;;1.17;100.00;102498.09;4868966;29;20593;-70
2024/01/31 08:56:01;;;;;;;2.75;2.58;;;;;;;1.29;100.00;102467.06;4887836;29;20498;-71
2024/01/31 08:58:26;;;;;;;0.40;0.40;;;;;;;1.02;100.00;102411.69;4874929;29;20073;-71
2024/01/31 09:00:52;;;;;;;4.07;3.85;;;;;;;1.19;100.00;102411.19;4883856;29;20056;-70
2024/01/31 09:03:18;;;;;;;4.05;3.83;;;;;;;1.75;100.00;102488.34;4856300;29;20033;-71
2024/01/31 09:05:44;;;;;;;0.63;0.63;;;;;;;1.71;100.00;102488.03;4877557;29;20049;-70
2024/01/31 09:08:09;;;;;;;0.30;0.30;;;;;;;0.99;100.00;102347.75;4882394;29;20379;-70
2024/01/31 09:10:35;;;;;;;3.85;3.60;;;;;;;2.01;100.00;102491.84;4877720;29;20144;-70
2024/01/31 09:13:00;;;;;;;2.60;2.45;;;;;;;1.63;100.00;102405.59;4887148;29;20616;-70
2024/01/31 09:15:26;;;;;;;0.70;0.70;;;;;;;1.51;100.00;102422.88;4875396;29;20033;-70
2024/01/31 09:17:52;;;;;;;1.83;1.77;;;;;;;1.35;100.00;102376.06;4873166;29;20513;-70
2024/01/31 09:20:18;;;;;;;0.60;0.60;;;;;;;1.95;100.00;102425.03;4854221;29;20045;-69
2024/01/31 09:22:43;;;;;;;1.70;1.55;;;;;;;2.36;100.00;102493.31;4874001;29;20045;-71
2024/01/31 09:25:14;;;;;;;1.27;1.27;;;;;;;1.91;100.00;102391.94;4874775;29;20517;-70
2024/01/31 09:27:40;;;;;;;0.52;0.52;;;;;;;2.49;100.00;102475.22;4872950;29;20036;-71
2024/01/31 09:30:07;;;;;;;1.02;1.00;;;;;;;2.08;100.00;102396.59;4874415;29;20060;-69
2024/01/31 09:32:32;;;;;;;0.40;0.40;;;;;;;1.82;100.00;102366.34;4874284;29;20076;-70
2024/01/31 09:34:58;;;;;;;0.63;0.55;;;;;;;2.17;100.00;102390.19;4869398;29;20115;-70
2024/01/31 09:37:23;;;;;;;4.40;4.00;;;;;;;2.60;100.00;102465.53;4872178;29;20151;-71
2024/01/31 09:39:54;;;;;;;0.70;0.70;;;;;;;2.74;100.00;102460.47;4869967;29;20496;-69
2024/01/31 09:42:19;;;;;;;2.92;2.72;;;;;;;2.20;100.00;102369.66;4872278;29;20996;-70
2024/01/31 09:44:45;;;;;;;0.63;0.50;;;;;;;2.82;100.00;102448.00;4872242;29;20053;-70
2024/01/31 09:47:12;;;;;;;3.53;3.25;;;;;;;2.88;100.00;102456.19;4873617;29;20240;-71
2024/01/31 09:49:38;;;;;;;0.30;0.30;;;;;;;3.00;100.00;102434.41;4872619;29;20049;-70
2024/01/31 09:52:05;;;;;;;0.45;0.45;;;;;;;2.19;100.00;102368.78;4872436;29;20104;-70
2024/01/31 09:54:31;;;;;;;4.97;4.60;;;;;;;2.99;100.00;102443.00;4873926;29;20396;-70
2024/01/31 09:56:57;;;;;;;1.50;1.45;;;;;;;3.20;100.00;102423.59;4871213;29;20057;-70
2024/01/31 09:59:24;;;;;;;0.98;0.93;;;;;;;2.80;100.00;102342.44;4873498;29;20041;-71
2024/01/31 10:01:54;;;;;;;2.60;2.40;;;;;;;3.08;100.00;102335.56;4874713;29;20412;-70
2024/01/31 10:04:20;;;;;;;0.70;0.70;;;;;;;3.62;100.00;102428.75;4873798;29;20052;-70
2024/01/31 10:06:45;;;;;;;0.63;0.63;;;;;;;3.24;100.00;102326.13;4871765;29;20473;-69
2024/01/31 10:09:11;;;;;;;4.85;3.60;;;;;;;3.35;100.00;102332.88;4873738;29;20097;-70
2024/01/31 10:11:37;;;;;;;6.22;4.95;;;;;;;3.59;100.00;102377.56;4872720;29;20113;-70
2024/01/31 10:14:02;;;;;;;1.95;1.85;;;;;;;3.22;100.00;102328.63;4873159;29;20462;-70
2024/01/31 10:16:29;;;;;;;2.60;2.50;;;;;;;3.69;100.00;102417.94;4871742;29;20409;-69
2024/01/31 10:18:54;;;;;;;4.55;2.25;;;;;;;3.86;100.00;102409.44;4873773;29;20104;-71
2024/01/31 10:21:21;;;;;;;1.45;1.40;;;;;;;3.73;100.00;102400.03;4873497;29;20143;-71
2024/01/31 10:24:00;;;;;;;1.67;1.58;;;;;;;4.07;100.00;102415.00;4856616;29;20105;-69
2024/01/31 10:26:28;;;;;;;0.73;0.73;;;;;;;3.71;100.00;102326.34;4873190;29;20053;-69
2024/01/31 10:28:55;;;;;;;0.95;0.95;;;;;;;4.29;100.00;102418.88;4872616;29;20484;-69
2024/01/31 10:31:21;;;;;;;0.85;0.85;;;;;;;4.09;100.00;102407.31;4874901;29;20053;-70
2024/01/31 10:33:48;;;;;;;4.43;4.13;;;;;;;4.41;100.00;102401.38;4868419;29;20021;-71
2024/01/31 10:36:16;;;;;;;2.25;2.15;;;;;;;4.40;100.00;102371.91;4868553;29;20209;-71
2024/01/31 10:38:43;;;;;;;6.95;6.57;;;;;;;4.32;100.00;102374.88;4876682;29;20049;-70
2024/01/31 10:41:10;;;;;;;0.40;0.40;;;;;;;4.20;100.00;102307.50;4872452;29;20457;-70
2024/01/31 10:43:37;;;;;;;3.65;3.40;;;;;;;3.76;100.00;102304.16;4876082;29;20037;-69
2024/01/31 10:46:03;;;;;;;2.20;2.10;;;;;;;4.55;100.00;102381.38;4869817;29;20057;-71
2024/01/31 10:48:28;;;;;;;1.50;1.35;;;;;;;4.93;100.00;102373.09;4870904;29;20052;-70
2024/01/31 10:50:57;;;;;;;1.08;1.02;;;;;;;5.15;100.00;102377.75;4872079;29;20073;-69
2024/01/31 10:53:23;;;;;;;0.85;0.85;;;;;;;5.07;100.00;102294.06;4855753;29;20060;-71
2024/01/31 10:55:51;;;;;;;0.73;0.73;;;;;;;5.57;100.00;102362.63;4870604;29;20068;-72
2024/01/31 10:58:21;;;;;;;0.60;0.60;;;;;;;6.17;100.00;102362.16;4866622;29;20045;-71
2024/01/31 11:00:47;;;;;;;0.73;0.73;;;;;;;5.36;100.00;102364.06;4878565;29;20048;-70
2024/01/31 11:03:17;;;;;;;0.50;0.50;;;;;;;6.20;100.00;102359.72;4875864;29;20116;-70
2024/01/31 11:05:43;;;;;;;0.43;0.43;;;;;;;6.26;100.00;102306.16;4872020;29;20651;-71
2024/01/31 11:08:19;;;;;;;1.67;1.58;;;;;;;6.46;100.00;102261.88;4871124;29;20041;-71
2024/01/31 11:10:45;;;;;;;0.50;0.50;;;;;;;6.67;100.00;102325.50;4872003;29;20413;-73
2024/01/31 11:13:11;;;;;;;0.82;0.82;;;;;;;6.02;100.00;102264.19;4872596;29;20049;-70